Wetmore, Texas
Current Conditions -  °F | °C
As of 1:51 PM on Thursday 30 Oct 2014 (Local Time) from KSAT Reporting Station
Few Clouds Few Clouds  
Wind Chill: 81°   Ceiling: Unl
Heat Index: 82°   Visibility: 10mi
Dew Point: 62°   Wind: 7mph
Humidity: 52%   Direction: 120°ESE
Pressure: 30.09"   Gusts: NA
Location:  29.5903°N, 98.4049°W
Report Text: KSAT 301851Z 12006KT 10SM FEW040 27/17 A3009 RMK AO2 SLP174 T02720167
Loading
Personal Weather Stations






























Interactive Weather Map
Tropical Storm Tracking
New forecast layout! Learn more

10-Day Weather Forecast

Advertisements
Track Severe Weather on mobile